• Join FlightAware (Why Join?)
  • Login
  • US Flag 
12:58PM EDT


 

Airport Tracker/Info


-or-


 

Live Flight TrackerFlight Track Log ✈ UAL5832 ✈ 25-Apr-2013 ✈ KORD - KBNA

Flight Track Log - Related Links

Times and Time Zones

All times are in EDT time to prevent confusion due to time zone crossing. See the UAL5832 flight status page for this flight to view local times or setup timezone preferences in your user account.

Time Position Orientation Groundspeed Altitude Reporting Facility
EDT Latitude Longitude Course Direction KTS MPH feet Rate Location/Type
08:48PM 41.8103 -87.8975 172° South 245 282 5,000  Level Chicago Center
08:49PM 41.7383 -87.8944 178° South 253 291 6,700 1,980 Climbing Chicago Center
08:50PM 41.6439 -87.8894 178° South 281 323 9,200 1,860 Climbing Chicago Center
08:51PM 41.5586 -87.8853 178° South 302 348 10,600 1,080 Climbing Chicago Center
08:52PM 41.1830 -87.7264 170° South  Level Estimated
08:52PM 41.4597 -87.8806 178° South 349 402 11,500  Level Chicago Center
08:53PM 41.3556 -87.8844 182° South 366 421 12,800 1,200 Climbing Chicago Center
08:54PM 41.2497 -87.8928 183° South 374 430 14,100 1,200 Climbing Chicago Center
08:55PM 41.1422 -87.8903 179° South 383 441 15,300 1,200 Climbing Chicago Center
08:56PM 41.0333 -87.8869 179° South 389 448 16,600 1,140 Climbing Chicago Center
08:57PM 40.9022 -87.8672 174° South 399 459 17,700 1,020 Climbing Chicago Center
08:58PM 40.7914 -87.8481 173° South 403 464 18,800 1,020 Climbing Chicago Center
08:59PM 40.6781 -87.8267 172° South 411 473 19,900 960 Climbing Chicago Center
09:00PM 40.5642 -87.8058 172° South 416 479 20,900 960 Climbing Chicago Center
09:01PM 40.4483 -87.7847 172° South 421 484 21,900 1,080 Climbing Chicago Center
09:02PM 40.3081 -87.7586 172° South 427 491 23,200 1,080 Climbing Chicago Center
09:03PM 40.2867 -87.7567 176° South 426 490 23,400 1,020 Climbing Indianapolis Center
09:04PM 40.1478 -87.7333 173° South 429 494 24,600 1,080 Climbing Indianapolis Center
09:05PM 40.0292 -87.7117 172° South 429 494 25,600 1,020 Climbing Indianapolis Center
09:06PM 39.9097 -87.6908 172° South 430 495 26,700 1,020 Climbing Indianapolis Center
09:07PM 39.7903 -87.6706 173° South 430 495 27,700 960 Climbing Indianapolis Center
09:08PM 39.6725 -87.6494 172° South 427 491 28,700 1,020 Climbing Indianapolis Center
09:09PM 39.5544 -87.6283 172° South 427 491 29,800 1,020 Climbing Indianapolis Center
09:10PM 39.4383 -87.6081 172° South 422 486 30,800 540 Climbing Indianapolis Center
09:11PM 39.3172 -87.5875 173° South 433 498 31,000 60 Climbing Indianapolis Center
09:12PM 39.1889 -87.5650 172° South 455 524 31,000  Level Indianapolis Center
09:13PM 39.0469 -87.5408 172° South 483 556 31,000  Level Indianapolis Center
09:14PM 38.9122 -87.5158 172° South 488 562 31,000  Level Indianapolis Center
09:15PM 38.7778 -87.4931 172° South 486 559 31,000  Level Indianapolis Center
09:16PM 38.6442 -87.4717 173° South 484 557 31,000  Level Indianapolis Center
09:17PM 38.5108 -87.4481 172° South 485 558 31,000  Level Indianapolis Center
09:18PM 38.3514 -87.4219 173° South 485 558 31,000  Level Indianapolis Center
09:19PM 38.2186 -87.4003 173° South 485 558 31,000  Level Indianapolis Center
09:20PM 38.0850 -87.3769 172° South 488 562 31,000  Level Indianapolis Center
09:21PM 37.9508 -87.3547 173° South 489 563 31,000 -60 Level Indianapolis Center
09:22PM 37.8161 -87.3328 173° South 488 562 30,900 -1,260 Descending Indianapolis Center
09:23PM 37.6731 -87.3072 172° South 489 563 28,500 -2,520 Descending Indianapolis Center
09:24PM 37.5364 -87.2847 173° South 490 564 25,800 -2,580 Descending Indianapolis Center
09:25PM 37.4058 -87.2656 173° South 481 554 23,300 -1,440 Descending Memphis Center
09:26PM 37.2778 -87.2317 168° South 476 548 23,000 -240 Descending Memphis Center
09:27PM 37.1983 -87.2139 170° South 461 531 23,000  Level Memphis Center
09:27PM 37.1417 -87.1953 165° South 463 533 23,000  Level Memphis Center
09:28PM 37.1081 -87.1861 168° South 466 536 23,000  Level Memphis Center
09:28PM 37.0133 -87.1561 166° South 468 539 23,000 -600 Level Memphis Center
09:29PM 36.9842 -87.1522 174° South 468 539 22,400 -2,400 Descending Memphis Center
09:29PM 36.8894 -87.1197 165° South 468 539 20,600 -2,520 Descending Memphis Center
09:30PM 36.7717 -87.0725 162° South 462 532 18,100 -2,100 Descending Memphis Center
09:31PM 36.6636 -87.0047 153° Southeast 444 511 16,400 -2,040 Descending Memphis Center
09:32PM 36.5619 -86.9442 154° Southeast 420 483 14,100 -2,160 Descending Memphis Center
09:33PM 36.4747 -86.8886 153° Southeast 371 427 12,100 -1,800 Descending Memphis Center
09:34PM 36.3942 -86.8406 154° Southeast 330 380 10,500 -1,560 Descending Memphis Center
09:35PM 36.3242 -86.7972 153° Southeast 317 365 9,000 -1,560 Descending Memphis Center
09:36PM 36.2458 -86.7542 156° South 296 341 7,400 -1,500 Descending Memphis Center
09:37PM 36.1775 -86.7725 192° South 233 268 6,000 -1,200 Descending Memphis Center
09:38PM 36.1178 -86.7958 198° South 238 274 5,000 -900 Descending Memphis Center
09:39PM 36.0558 -86.8139 193° South 231 266 4,200 -600 Descending Memphis Center
09:40PM 35.9958 -86.8344 195° South 231 266 3,800 -360 Descending Memphis Center
09:41PM 35.9592 -86.7900 136° Southeast 179 206 3,500 -600 Descending Memphis Center
09:42PM 35.9911 -86.7422 50° Northeast 118 136 2,600 -540 Descending Memphis Center
09:43PM 36.0261 -86.7228 24° Northeast 130 150 2,500 -420 Descending Memphis Center
09:44PM 36.0611 -86.7083 18° North 135 155 1,800 -660 Descending Memphis Center
09:45PM 36.0919 -86.6967 17° North 125 144 1,200 -600 Descending Memphis Center
09:46PM 36.1272 -86.6850 15° North 125 144 700 3,900 Descending Memphis Center
09:47PM 36.1622 -86.6756 12° North 125 144 9,000 8,280 Climbing Memphis Center
09:49PM 36.1245 -86.6782 180° South  Level Estimated
09:56PM 36.1245 -86.6782 180° South  Level Estimated
09:57PM 36.1245 -86.6782 180° South  Level Estimated
09:58PM 36.1245 -86.6782 180° South  Level Estimated
09:59PM 36.1245 -86.6782 180° South  Level Estimated